Etusivu
METAR-TAF:

METAR-TAF

Lentoasemat :

Grand Marais, Minnesota, Yhdysvallat

Leveyspiiri: 47-50-18N, Pituuspiiri: 090-22-59W, korkeus merenpinnasta: 548 m

Tämänhetkinen sää

Tämä raportti tehtiin 21 minuuttia sitten, kello 19.35 UTC
Tuuli 10 kn idästä puuskistuen 17 kn:hen, vaihdellen idän/koillisen ja kaakon välillä
Lämpötila 7°C
Kosteus 87%
Ilmanpaine 1016 hPa
Näkyvyys: 3.2 km
Pilvistä 400 ft:n korkeudessa
tuntematon

METAR: KCKC 241935Z AUTO 10010G17KT 059V129 2SM UP OVC004 07/05 A2999 RMK AO2 P0001 P0001

Aika: 14:56 (19:56 UTC)


TAF: puuttuu

Säähavainnot ja -ennusteet yli 4000 lentoasemalta (METAR- ja TAF-raportit).

Käytössä olevat sääasemat on merkitty karttaan keltaisilla ja punaisilla pisteillä.

Aseta hiiri pisteen päälle nähdäksesi sääaseman nimen.

Klikkaa sitten nähdäksesi säähavainnot ja -ennusteet.

Kartan vaihtaminen: klikkaa mustalla rastilla varustettuja vihreitä pisteitä, niin voit zoomata sisään; viivalla varustettua vihreää pistettä, niin voit zoomata ulos tai vihreitä nuolia, niin pääset viereisille kartoille.


METAR-TAF: